createdAt,value
2018-12-03T00:01:32.422Z,94984.94
2018-12-03T00:04:09.366Z,94977.11
2018-12-03T00:06:38.080Z,94980.84
2018-12-03T00:09:09.112Z,94984.13
2018-12-03T00:11:38.108Z,94982.64
2018-12-03T00:14:06.924Z,94988.60
2018-12-03T00:16:35.643Z,94980.67
2018-12-03T00:19:04.478Z,94989.12
2018-12-03T00:21:33.203Z,94994.87
2018-12-03T00:24:01.966Z,94997.32
2018-12-03T00:26:30.706Z,95000.24
2018-12-03T00:28:59.517Z,94994.50
2018-12-03T00:31:28.276Z,94985.39
2018-12-03T00:33:57.272Z,94987.47
2018-12-03T00:36:26.039Z,94986.53
2018-12-03T00:38:54.789Z,94993.92
2018-12-03T00:41:23.527Z,94986.73
2018-12-03T00:43:52.237Z,94995.50
2018-12-03T00:46:20.954Z,94996.71
2018-12-03T00:48:49.624Z,94991.34
2018-12-03T00:51:18.306Z,94989.59
2018-12-03T00:53:46.988Z,94993.88
2018-12-03T00:56:15.672Z,94986.33
2018-12-03T00:58:44.365Z,94983.14
2018-12-03T01:01:13.067Z,94982.14
2018-12-03T01:03:41.815Z,94975.85
2018-12-03T01:06:10.596Z,94979.21
2018-12-03T01:08:39.239Z,94980.78
2018-12-03T01:11:08.018Z,94973.96
2018-12-03T01:13:36.725Z,94969.13
2018-12-03T01:16:05.997Z,94968.59
2018-12-03T01:18:34.688Z,94957.10
2018-12-03T01:21:03.424Z,94953.83
2018-12-03T01:23:32.077Z,94941.78
2018-12-03T01:26:00.690Z,94941.08
2018-12-03T01:28:29.425Z,94934.44
2018-12-03T01:30:58.086Z,94933.59
2018-12-03T01:33:26.767Z,94929.78
2018-12-03T01:35:55.585Z,94932.87
2018-12-03T01:38:24.256Z,94921.95
2018-12-03T01:40:53.029Z,94926.76
2018-12-03T01:43:21.684Z,94925.84
2018-12-03T01:45:50.506Z,94928.61
2018-12-03T01:48:19.200Z,94925.67
2018-12-03T01:50:47.892Z,94935.69
2018-12-03T01:53:16.552Z,94936.24
2018-12-03T01:55:45.508Z,94932.14
2018-12-03T01:58:14.239Z,94932.69
2018-12-03T02:00:42.925Z,94922.93
2018-12-03T02:03:11.664Z,94919.77
2018-12-03T02:05:40.334Z,94923.23
2018-12-03T02:08:09.093Z,94916.28
2018-12-03T02:10:37.777Z,94911.19
2018-12-03T02:13:06.693Z,94912.83
2018-12-03T02:15:35.434Z,94913.28
2018-12-03T02:18:04.146Z,94906.20
2018-12-03T02:20:32.784Z,94904.82
2018-12-03T02:23:01.402Z,94904.82
2018-12-03T02:25:30.090Z,94902.80
2018-12-03T02:27:58.732Z,94910.66
2018-12-03T02:30:27.436Z,94906.28
2018-12-03T02:32:56.084Z,94904.80
2018-12-03T02:35:24.820Z,94900.82
2018-12-03T02:37:53.458Z,94893.16
2018-12-03T02:40:22.132Z,94900.63
2018-12-03T02:42:50.765Z,94892.23
2018-12-03T02:45:19.437Z,94896.80
2018-12-03T02:47:48.116Z,94896.17
2018-12-03T02:50:16.784Z,94901.35
2018-12-03T02:52:45.459Z,94889.25
2018-12-03T02:55:14.688Z,94885.59
2018-12-03T02:57:43.377Z,94885.34
2018-12-03T03:00:17.123Z,94886.77
2018-12-03T03:02:46.081Z,94880.48
2018-12-03T03:05:15.766Z,94881.77
2018-12-03T03:07:44.756Z,94886.21
2018-12-03T03:10:15.414Z,94886.13
2018-12-03T03:12:44.102Z,94882.64
2018-12-03T03:15:13.810Z,94879.98
2018-12-03T03:17:42.488Z,94881.91
2018-12-03T03:20:12.414Z,94882.97
2018-12-03T03:22:41.140Z,94888.98
2018-12-03T03:25:10.703Z,94887.18
2018-12-03T03:27:39.542Z,94887.06
2018-12-03T03:30:11.217Z,94892.00
2018-12-03T03:32:39.947Z,94897.95
2018-12-03T03:35:10.473Z,94894.85
2018-12-03T03:37:39.187Z,94895.00
2018-12-03T03:40:10.398Z,94894.47
2018-12-03T03:42:39.101Z,94909.00
2018-12-03T03:45:14.064Z,94906.92
2018-12-03T03:47:42.751Z,94910.31
2018-12-03T03:50:11.494Z,94910.97
2018-12-03T03:52:40.169Z,94911.25
2018-12-03T03:55:09.807Z,94903.89
2018-12-03T03:57:38.565Z,94910.09
2018-12-03T04:00:11.835Z,94912.36
2018-12-03T04:02:40.648Z,94915.66
2018-12-03T04:05:16.106Z,94908.02
2018-12-03T04:07:45.833Z,94903.76
2018-12-03T04:10:15.316Z,94909.50
2018-12-03T04:12:45.093Z,94912.23
2018-12-03T04:15:14.710Z,94911.58
2018-12-03T04:17:43.424Z,94909.13
2018-12-03T04:20:14.317Z,94910.69
2018-12-03T04:22:43.212Z,94910.52
2018-12-03T04:25:12.370Z,94912.78
2018-12-03T04:27:41.031Z,94910.63
2018-12-03T04:30:15.423Z,94915.45
2018-12-03T04:32:44.110Z,94914.69
2018-12-03T04:35:13.342Z,94921.63
2018-12-03T04:37:42.494Z,94919.64
2018-12-03T04:40:12.228Z,94925.83
2018-12-03T04:42:40.911Z,94926.98
2018-12-03T04:45:11.868Z,94922.28
2018-12-03T04:47:40.512Z,94923.64
2018-12-03T04:50:12.585Z,94919.11
2018-12-03T04:52:41.380Z,94919.01
2018-12-03T04:55:10.558Z,94918.27
2018-12-03T04:57:39.382Z,94920.27
2018-12-03T05:00:12.831Z,94914.89
2018-12-03T05:02:41.629Z,94912.72
2018-12-03T05:05:10.894Z,94909.55
2018-12-03T05:07:39.552Z,94903.19
2018-12-03T05:10:11.708Z,94909.55
2018-12-03T05:12:40.376Z,94905.35
2018-12-03T05:15:11.368Z,94905.47
2018-12-03T05:17:40.313Z,94904.27
2018-12-03T05:20:12.269Z,94908.82
2018-12-03T05:22:40.930Z,94904.28
2018-12-03T05:25:10.695Z,94910.63
2018-12-03T05:27:39.423Z,94917.19
2018-12-03T05:30:11.014Z,94909.38
2018-12-03T05:32:40.155Z,94911.47
2018-12-03T05:35:13.306Z,94911.73
2018-12-03T05:37:42.073Z,94909.73
2018-12-03T05:40:16.657Z,94915.28
2018-12-03T05:42:45.560Z,94911.84
2018-12-03T05:45:14.260Z,94911.47
2018-12-03T05:47:42.955Z,94907.84
2018-12-03T05:50:14.602Z,94908.48
2018-12-03T05:52:43.996Z,94917.13
2018-12-03T05:55:13.346Z,94919.75
2018-12-03T05:57:42.425Z,94918.47
2018-12-03T06:00:16.322Z,94915.38
2018-12-03T06:02:44.987Z,94913.48
2018-12-03T06:05:14.324Z,94915.19
2018-12-03T06:07:43.050Z,94911.19
2018-12-03T06:10:13.914Z,94907.28
2018-12-03T06:12:42.630Z,94907.28
2018-12-03T06:15:12.569Z,94904.45
2018-12-03T06:17:41.303Z,94902.35
2018-12-03T06:20:14.144Z,94900.73
2018-12-03T06:22:42.874Z,94900.11
2018-12-03T06:25:14.899Z,94899.55
2018-12-03T06:27:43.572Z,94900.09
2018-12-03T06:30:14.623Z,94897.00
2018-12-03T06:32:43.309Z,94901.72
2018-12-03T06:35:12.943Z,94898.55
2018-12-03T06:37:41.624Z,94899.38
2018-12-03T06:40:14.294Z,94902.55
2018-12-03T06:42:43.004Z,94898.35
2018-12-03T06:45:14.890Z,94904.30
2018-12-03T06:47:49.823Z,94910.66
2018-12-03T06:50:18.607Z,94910.56
2018-12-03T06:52:47.271Z,94902.92
2018-12-03T06:55:15.937Z,94899.73
2018-12-03T06:57:44.642Z,94906.65
2018-12-03T07:00:14.842Z,94906.55
2018-12-03T07:02:43.908Z,94904.98
2018-12-03T07:05:12.726Z,94902.63
2018-12-03T07:07:42.321Z,94907.38
2018-12-03T07:10:19.121Z,94898.36
2018-12-03T07:12:49.262Z,94904.38
2018-12-03T07:15:19.353Z,94906.90
2018-12-03T07:17:48.351Z,94900.22
2018-12-03T07:20:17.095Z,94906.97
2018-12-03T07:22:45.737Z,94905.31
2018-12-03T07:25:14.465Z,94907.66
2018-12-03T07:27:43.422Z,94905.47
2018-12-03T07:30:22.026Z,94897.40
2018-12-03T07:32:51.308Z,94901.66
2018-12-03T07:35:21.747Z,94905.89
2018-12-03T07:37:51.755Z,94904.34
2018-12-03T07:40:20.485Z,94900.22
2018-12-03T07:42:49.183Z,94903.30
2018-12-03T07:45:20.016Z,94909.67
2018-12-03T07:47:48.810Z,94910.91
2018-12-03T07:50:18.514Z,94910.27
2018-12-03T07:52:47.244Z,94915.64
2018-12-03T07:55:17.320Z,94917.53
2018-12-03T07:57:50.694Z,94912.38
2018-12-03T08:00:21.156Z,94921.05
2018-12-03T08:02:49.866Z,94924.55
2018-12-03T08:05:18.559Z,94916.42
2018-12-03T08:07:47.280Z,94920.20
2018-12-03T08:10:17.629Z,94922.75
2018-12-03T08:12:47.341Z,94919.12
2018-12-03T08:15:17.449Z,94916.48
2018-12-03T08:17:52.035Z,94905.64
2018-12-03T08:20:33.990Z,94899.67
2018-12-03T08:23:05.651Z,94897.16
2018-12-03T08:25:34.457Z,94891.33
2018-12-03T08:28:03.209Z,94896.91
2018-12-03T08:30:31.866Z,94902.67
2018-12-03T08:33:00.603Z,94896.33
2018-12-03T08:35:29.316Z,94895.13
2018-12-03T08:38:03.237Z,94898.62
2018-12-03T08:40:26.731Z,94898.17
2018-12-03T08:42:55.870Z,94899.52
2018-12-03T08:45:25.624Z,94899.63
2018-12-03T08:47:54.404Z,94907.67
2018-12-03T08:50:26.474Z,94900.55
2018-12-03T08:52:56.089Z,94891.45
2018-12-03T08:55:34.403Z,94886.56
2018-12-03T08:58:03.131Z,94887.52
2018-12-03T09:00:31.788Z,94886.67
2018-12-03T09:03:03.893Z,94886.09
2018-12-03T09:05:38.812Z,94876.30
2018-12-03T09:08:09.742Z,94874.13
2018-12-03T09:10:38.697Z,94868.69
2018-12-03T09:13:14.945Z,94866.17
2018-12-03T09:15:43.988Z,94858.61
2018-12-03T09:18:12.650Z,94862.43
2018-12-03T09:20:41.363Z,94865.84
2018-12-03T09:23:10.028Z,94860.70
2018-12-03T09:25:38.683Z,94856.32
2018-12-03T09:28:07.381Z,94849.27
2018-12-03T09:30:36.096Z,94845.34
2018-12-03T09:33:04.858Z,94846.08
2018-12-03T09:35:33.542Z,94843.36
2018-12-03T09:38:02.221Z,94839.64
2018-12-03T09:40:31.406Z,94839.52
2018-12-03T09:43:00.110Z,94838.66
2018-12-03T09:45:29.117Z,94826.03
2018-12-03T09:47:57.811Z,94819.73
2018-12-03T09:50:28.021Z,94822.88
2018-12-03T09:52:57.036Z,94818.47
2018-12-03T09:55:28.753Z,94809.73
2018-12-03T09:58:10.972Z,94809.17
2018-12-03T10:00:39.673Z,94809.55
2018-12-03T10:03:10.428Z,94812.22
2018-12-03T10:05:47.655Z,94810.37
2018-12-03T10:08:16.278Z,94807.36
2018-12-03T10:10:53.889Z,94801.89
2018-12-03T10:13:22.932Z,94807.09
2018-12-03T10:15:51.587Z,94806.09
2018-12-03T10:18:20.285Z,94800.19
2018-12-03T10:20:51.515Z,94806.67
2018-12-03T10:23:20.197Z,94797.98
2018-12-03T10:25:50.695Z,94798.82
2018-12-03T10:28:20.460Z,94796.03
2018-12-03T10:30:49.775Z,94792.52
2018-12-03T10:33:20.313Z,94794.67
2018-12-03T10:35:49.500Z,94795.53
2018-12-03T10:38:21.434Z,94790.47
2018-12-03T10:41:01.925Z,94788.89
2018-12-03T10:43:30.616Z,94782.45
2018-12-03T10:45:59.623Z,94785.58
2018-12-03T10:48:28.318Z,94784.69
2018-12-03T10:50:57.047Z,94780.78
2018-12-03T10:53:28.497Z,94780.96
2018-12-03T10:55:57.246Z,94774.06
2018-12-03T10:58:25.890Z,94771.62
2018-12-03T11:01:05.418Z,94769.67
2018-12-03T11:03:39.278Z,94765.07
2018-12-03T11:06:13.146Z,94765.84
2018-12-03T11:08:41.896Z,94761.52
2018-12-03T11:11:10.608Z,94759.45
2018-12-03T11:13:39.375Z,94762.25
2018-12-03T11:16:12.051Z,94751.48
2018-12-03T11:18:43.089Z,94746.38
2018-12-03T11:21:11.746Z,94746.27
2018-12-03T11:23:40.548Z,94743.53
2018-12-03T11:26:09.239Z,94738.73
2018-12-03T11:28:41.114Z,94740.41
2018-12-03T11:31:15.012Z,94736.39
2018-12-03T11:33:43.675Z,94726.90
2018-12-03T11:36:12.397Z,94721.23
2018-12-03T11:38:56.852Z,94723.66
2018-12-03T11:41:25.587Z,94716.98
2018-12-03T11:43:54.266Z,94712.00
2018-12-03T11:46:23.011Z,94709.33
2018-12-03T11:48:51.689Z,94714.48
2018-12-03T11:51:22.371Z,94707.13
2018-12-03T11:53:51.129Z,94711.95
2018-12-03T11:56:19.805Z,94699.63
2018-12-03T11:58:48.449Z,94702.25
2018-12-03T12:01:18.191Z,94706.27
2018-12-03T12:03:46.891Z,94708.13
2018-12-03T12:06:15.663Z,94708.48
2018-12-03T12:08:44.637Z,94707.53
2018-12-03T12:11:13.325Z,94704.37
2018-12-03T12:13:42.093Z,94699.59
2018-12-03T12:16:10.778Z,94696.36
2018-12-03T12:18:39.483Z,94698.76
2018-12-03T12:21:08.193Z,94695.83
2018-12-03T12:23:36.896Z,94690.23
2018-12-03T12:26:06.458Z,94689.62
2018-12-03T12:28:38.249Z,94690.16
2018-12-03T12:31:03.889Z,94689.99
2018-12-03T12:33:32.558Z,94679.53
2018-12-03T12:36:01.264Z,94681.81
2018-12-03T12:38:29.921Z,94678.17
2018-12-03T12:40:58.611Z,94677.27
2018-12-03T12:43:27.255Z,94675.34
2018-12-03T12:46:03.806Z,94679.89
2018-12-03T12:48:32.456Z,94678.14
2018-12-03T12:51:01.257Z,94673.77
2018-12-03T12:53:29.931Z,94677.41
2018-12-03T12:55:58.611Z,94675.73
2018-12-03T12:58:27.290Z,94668.30
2018-12-03T13:00:55.951Z,94671.73
2018-12-03T13:03:24.616Z,94675.06
2018-12-03T13:05:53.318Z,94683.64
2018-12-03T13:08:21.949Z,94682.38
2018-12-03T13:10:51.138Z,94684.55
2018-12-03T13:13:19.822Z,94679.80
2018-12-03T13:15:48.458Z,94686.11
2018-12-03T13:18:17.082Z,94684.16
2018-12-03T13:20:45.783Z,94687.25
2018-12-03T13:23:14.476Z,94680.91
2018-12-03T13:25:43.165Z,94673.19
2018-12-03T13:28:11.856Z,94667.41
2018-12-03T13:30:40.578Z,94672.41
2018-12-03T13:33:09.297Z,94674.10
2018-12-03T13:35:37.981Z,94670.25
2018-12-03T13:38:06.781Z,94661.33
2018-12-03T13:40:35.518Z,94662.39
2018-12-03T13:43:04.330Z,94655.17
2018-12-03T13:45:33.011Z,94656.68
2018-12-03T13:48:01.796Z,94651.25
2018-12-03T13:50:30.479Z,94659.17
2018-12-03T13:53:00.433Z,94656.75
2018-12-03T13:55:28.023Z,94649.97
2018-12-03T13:57:56.715Z,94659.02
2018-12-03T14:00:26.689Z,94656.11
2018-12-03T14:03:15.619Z,94661.91
2018-12-03T14:06:02.809Z,94658.50
2018-12-03T14:10:48.632Z,94666.00
2018-12-03T14:15:45.245Z,94661.28
2018-12-03T14:18:58.348Z,94661.92
2018-12-03T14:21:32.209Z,94656.14
2018-12-03T14:24:01.446Z,94655.11
2018-12-03T14:26:30.142Z,94655.14
2018-12-03T14:28:58.815Z,94654.80
2018-12-03T14:31:27.495Z,94651.55
2018-12-03T14:33:56.181Z,94654.95
2018-12-03T14:36:24.973Z,94647.70
2018-12-03T14:38:54.677Z,94651.67
2018-12-03T14:41:23.386Z,94651.90
2018-12-03T14:43:52.130Z,94652.38
2018-12-03T14:46:20.795Z,94648.18
2018-12-03T14:48:51.132Z,94651.31
2018-12-03T14:51:20.869Z,94649.09
2018-12-03T14:53:49.482Z,94652.58
2018-12-03T14:56:18.156Z,94651.16
2018-12-03T14:58:46.847Z,94653.59
2018-12-03T15:01:15.573Z,94651.72
2018-12-03T15:03:44.288Z,94657.20
2018-12-03T15:06:12.980Z,94649.73
2018-12-03T15:08:41.655Z,94651.01
2018-12-03T15:11:10.489Z,94658.69
2018-12-03T15:13:39.121Z,94666.22
2018-12-03T15:16:07.856Z,94669.73
2018-12-03T15:18:36.546Z,94667.25
2018-12-03T15:21:05.231Z,94662.97
2018-12-03T15:23:33.896Z,94665.97
2018-12-03T15:26:02.596Z,94669.58
2018-12-03T20:17:47.747Z,94659.30
2018-12-03T20:20:22.826Z,94654.64
2018-12-03T20:22:59.726Z,94652.19
2018-12-03T20:25:35.781Z,94646.00
2018-12-03T20:28:09.156Z,94643.14
2018-12-03T20:30:55.605Z,94622.47
2018-12-03T20:33:38.425Z,94640.51
2018-12-03T20:36:21.060Z,94640.14
2018-12-03T20:39:09.299Z,94634.25
2018-12-03T20:41:42.535Z,94625.93
2018-12-03T20:44:36.392Z,94630.67
2018-12-03T20:47:37.554Z,94630.53
2018-12-03T20:51:24.219Z,94627.53
2018-12-03T20:53:52.957Z,94626.41
2018-12-03T20:56:21.682Z,94621.30
2018-12-03T20:58:50.423Z,94627.40
2018-12-03T21:01:19.120Z,94628.00
2018-12-03T21:03:47.850Z,94631.67
2018-12-03T21:06:16.509Z,94632.28
2018-12-03T21:08:45.161Z,94636.34
2018-12-03T21:11:13.845Z,94634.88
2018-12-03T21:13:42.479Z,94639.21
2018-12-03T21:16:11.152Z,94632.51
2018-12-03T21:18:39.786Z,94634.16
2018-12-03T21:21:10.158Z,94637.33
2018-12-03T21:23:38.859Z,94641.57
2018-12-03T21:26:07.553Z,94643.83
2018-12-03T21:28:36.231Z,94644.34
2018-12-03T21:31:04.961Z,94644.14
2018-12-03T21:33:33.638Z,94644.97
2018-12-03T21:36:02.349Z,94645.66
2018-12-03T21:38:31.312Z,94639.80
2018-12-03T21:40:59.993Z,94638.14
2018-12-03T21:43:28.747Z,94638.38
2018-12-03T21:45:57.460Z,94638.39
2018-12-03T21:48:26.101Z,94639.50
2018-12-03T21:50:54.722Z,94635.00
2018-12-03T21:53:23.579Z,94626.61
2018-12-03T21:55:52.290Z,94628.19
2018-12-03T21:58:21.951Z,94630.38
2018-12-03T22:00:50.624Z,94622.91
2018-12-03T22:03:19.302Z,94625.83
2018-12-03T22:05:47.978Z,94615.77
2018-12-03T22:08:17.143Z,94614.50
2018-12-03T22:10:53.027Z,94608.33
2018-12-03T22:13:21.796Z,94605.79
2018-12-03T22:15:50.468Z,94605.00
2018-12-03T22:18:19.180Z,94601.48
2018-12-03T22:20:47.818Z,94595.25
2018-12-03T22:23:16.486Z,94596.30
2018-12-03T22:25:45.183Z,94601.29
2018-12-03T22:28:13.888Z,94599.63
2018-12-03T22:30:42.574Z,94596.36
2018-12-03T22:33:11.250Z,94599.94
2018-12-03T22:35:39.862Z,94602.06
2018-12-03T22:38:08.469Z,94589.74
2018-12-03T22:40:37.143Z,94586.42
2018-12-03T22:43:05.791Z,94585.76
2018-12-03T22:45:34.593Z,94585.33
2018-12-03T22:48:03.311Z,94576.52
2018-12-03T22:50:31.976Z,94574.00
2018-12-03T22:53:00.608Z,94581.00
2018-12-03T22:55:29.378Z,94570.20
2018-12-03T22:57:58.032Z,94578.86
2018-12-03T23:00:32.327Z,94576.08
2018-12-03T23:03:00.970Z,94566.41
2018-12-03T23:05:29.610Z,94570.49
2018-12-03T23:07:58.272Z,94566.61
2018-12-03T23:10:26.979Z,94568.86
2018-12-03T23:12:55.687Z,94564.76
2018-12-03T23:15:24.315Z,94568.05
2018-12-03T23:17:53.062Z,94568.28
2018-12-03T23:20:21.814Z,94563.42
2018-12-03T23:22:51.074Z,94558.92
2018-12-03T23:25:19.783Z,94555.48
2018-12-03T23:27:49.000Z,94561.38
2018-12-03T23:30:17.647Z,94554.97
2018-12-03T23:32:46.286Z,94557.59
2018-12-03T23:35:14.992Z,94560.30
2018-12-03T23:37:43.602Z,94559.98
2018-12-03T23:40:12.279Z,94558.81
2018-12-03T23:42:40.940Z,94552.48
2018-12-03T23:45:09.639Z,94560.83
2018-12-03T23:47:38.301Z,94553.17
2018-12-03T23:50:07.133Z,94551.52
2018-12-03T23:52:35.806Z,94552.14
2018-12-03T23:55:04.727Z,94552.61
2018-12-03T23:57:33.358Z,94548.28
